sensor_id;sensor_type;location;lat;lon;timestamp;P1;durP1;ratioP1;P2;durP2;ratioP2
40162;SDS011;25881;47.462;19.304;2024-01-11T00:00:29;80.95;;;42.63;;
40162;SDS011;25881;47.462;19.304;2024-01-11T00:02:55;93.00;;;47.97;;
40162;SDS011;25881;47.462;19.304;2024-01-11T00:05:20;102.75;;;50.60;;
40162;SDS011;25881;47.462;19.304;2024-01-11T00:07:46;109.90;;;50.15;;
40162;SDS011;25881;47.462;19.304;2024-01-11T00:10:11;103.57;;;52.83;;
40162;SDS011;25881;47.462;19.304;2024-01-11T00:12:37;116.45;;;56.60;;
40162;SDS011;25881;47.462;19.304;2024-01-11T00:15:02;111.57;;;56.95;;
40162;SDS011;25881;47.462;19.304;2024-01-11T00:17:28;111.93;;;53.88;;
40162;SDS011;25881;47.462;19.304;2024-01-11T00:19:53;113.07;;;55.93;;
40162;SDS011;25881;47.462;19.304;2024-01-11T00:22:18;111.00;;;55.58;;
40162;SDS011;25881;47.462;19.304;2024-01-11T00:24:44;111.43;;;53.42;;
40162;SDS011;25881;47.462;19.304;2024-01-11T00:27:09;108.47;;;55.58;;
40162;SDS011;25881;47.462;19.304;2024-01-11T00:29:35;100.68;;;52.03;;
40162;SDS011;25881;47.462;19.304;2024-01-11T00:32:00;106.43;;;51.08;;
40162;SDS011;25881;47.462;19.304;2024-01-11T00:34:26;88.85;;;46.38;;
40162;SDS011;25881;47.462;19.304;2024-01-11T00:36:52;91.32;;;48.15;;
40162;SDS011;25881;47.462;19.304;2024-01-11T00:39:18;93.82;;;49.55;;
40162;SDS011;25881;47.462;19.304;2024-01-11T00:41:43;93.03;;;47.67;;
40162;SDS011;25881;47.462;19.304;2024-01-11T00:44:09;98.95;;;47.97;;
40162;SDS011;25881;47.462;19.304;2024-01-11T00:46:34;96.25;;;50.10;;
40162;SDS011;25881;47.462;19.304;2024-01-11T00:49:00;90.55;;;45.90;;
40162;SDS011;25881;47.462;19.304;2024-01-11T00:51:28;93.00;;;46.25;;
40162;SDS011;25881;47.462;19.304;2024-01-11T00:53:53;90.97;;;47.58;;
40162;SDS011;25881;47.462;19.304;2024-01-11T00:56:19;88.57;;;45.87;;
40162;SDS011;25881;47.462;19.304;2024-01-11T00:58:44;90.35;;;46.53;;
40162;SDS011;25881;47.462;19.304;2024-01-11T01:01:09;87.15;;;45.95;;
40162;SDS011;25881;47.462;19.304;2024-01-11T01:03:35;89.80;;;46.10;;
40162;SDS011;25881;47.462;19.304;2024-01-11T01:06:00;81.95;;;42.70;;
40162;SDS011;25881;47.462;19.304;2024-01-11T01:08:26;80.35;;;43.17;;
40162;SDS011;25881;47.462;19.304;2024-01-11T01:10:51;84.13;;;43.08;;
40162;SDS011;25881;47.462;19.304;2024-01-11T01:13:17;78.00;;;41.07;;
40162;SDS011;25881;47.462;19.304;2024-01-11T01:15:42;75.00;;;41.42;;
40162;SDS011;25881;47.462;19.304;2024-01-11T01:18:07;79.13;;;42.30;;
40162;SDS011;25881;47.462;19.304;2024-01-11T01:20:33;85.25;;;43.75;;
40162;SDS011;25881;47.462;19.304;2024-01-11T01:22:58;77.63;;;40.00;;
40162;SDS011;25881;47.462;19.304;2024-01-11T01:25:23;77.27;;;41.20;;
40162;SDS011;25881;47.462;19.304;2024-01-11T01:27:48;79.45;;;43.50;;
40162;SDS011;25881;47.462;19.304;2024-01-11T01:30:14;81.33;;;40.80;;
40162;SDS011;25881;47.462;19.304;2024-01-11T01:32:39;74.28;;;40.50;;
40162;SDS011;25881;47.462;19.304;2024-01-11T01:35:04;79.03;;;41.03;;
40162;SDS011;25881;47.462;19.304;2024-01-11T01:37:30;89.10;;;43.83;;
40162;SDS011;25881;47.462;19.304;2024-01-11T01:39:55;86.83;;;46.43;;
40162;SDS011;25881;47.462;19.304;2024-01-11T01:42:20;85.20;;;43.47;;
40162;SDS011;25881;47.462;19.304;2024-01-11T01:44:45;101.47;;;49.53;;
40162;SDS011;25881;47.462;19.304;2024-01-11T01:47:11;88.15;;;44.60;;
40162;SDS011;25881;47.462;19.304;2024-01-11T01:49:37;94.72;;;48.65;;
40162;SDS011;25881;47.462;19.304;2024-01-11T01:52:02;97.18;;;47.90;;
40162;SDS011;25881;47.462;19.304;2024-01-11T01:54:28;99.57;;;48.80;;
40162;SDS011;25881;47.462;19.304;2024-01-11T01:56:54;99.30;;;49.97;;
40162;SDS011;25881;47.462;19.304;2024-01-11T01:59:19;97.18;;;46.42;;
40162;SDS011;25881;47.462;19.304;2024-01-11T02:01:46;98.80;;;49.40;;
40162;SDS011;25881;47.462;19.304;2024-01-11T02:04:11;95.07;;;49.40;;
40162;SDS011;25881;47.462;19.304;2024-01-11T02:06:36;106.40;;;51.95;;
40162;SDS011;25881;47.462;19.304;2024-01-11T02:09:02;115.75;;;54.72;;
40162;SDS011;25881;47.462;19.304;2024-01-11T02:11:32;99.45;;;52.60;;
40162;SDS011;25881;47.462;19.304;2024-01-11T02:13:58;103.32;;;50.95;;
40162;SDS011;25881;47.462;19.304;2024-01-11T02:16:24;101.43;;;50.92;;
40162;SDS011;25881;47.462;19.304;2024-01-11T02:18:49;97.15;;;47.92;;
40162;SDS011;25881;47.462;19.304;2024-01-11T02:21:15;104.28;;;49.33;;
40162;SDS011;25881;47.462;19.304;2024-01-11T02:23:42;93.25;;;45.08;;
40162;SDS011;25881;47.462;19.304;2024-01-11T02:26:10;86.20;;;43.17;;
40162;SDS011;25881;47.462;19.304;2024-01-11T02:28:36;82.13;;;41.25;;
40162;SDS011;25881;47.462;19.304;2024-01-11T02:31:01;86.70;;;40.73;;
40162;SDS011;25881;47.462;19.304;2024-01-11T02:33:26;83.13;;;41.95;;
40162;SDS011;25881;47.462;19.304;2024-01-11T02:35:52;79.75;;;41.13;;
40162;SDS011;25881;47.462;19.304;2024-01-11T02:38:17;86.68;;;42.55;;
40162;SDS011;25881;47.462;19.304;2024-01-11T02:40:42;78.53;;;41.47;;
40162;SDS011;25881;47.462;19.304;2024-01-11T02:43:09;87.45;;;40.78;;
40162;SDS011;25881;47.462;19.304;2024-01-11T02:45:36;81.30;;;41.55;;
40162;SDS011;25881;47.462;19.304;2024-01-11T02:48:01;81.93;;;40.30;;
40162;SDS011;25881;47.462;19.304;2024-01-11T02:50:26;76.43;;;38.67;;
40162;SDS011;25881;47.462;19.304;2024-01-11T02:52:51;77.17;;;39.43;;
40162;SDS011;25881;47.462;19.304;2024-01-11T02:55:17;74.17;;;37.77;;
40162;SDS011;25881;47.462;19.304;2024-01-11T02:57:42;75.28;;;35.70;;
40162;SDS011;25881;47.462;19.304;2024-01-11T03:00:08;71.53;;;38.92;;
40162;SDS011;25881;47.462;19.304;2024-01-11T03:02:34;74.07;;;36.63;;
40162;SDS011;25881;47.462;19.304;2024-01-11T03:04:59;71.32;;;36.97;;
40162;SDS011;25881;47.462;19.304;2024-01-11T03:07:25;66.97;;;35.38;;
40162;SDS011;25881;47.462;19.304;2024-01-11T03:09:51;68.05;;;32.50;;
40162;SDS011;25881;47.462;19.304;2024-01-11T03:12:16;68.75;;;34.95;;
40162;SDS011;25881;47.462;19.304;2024-01-11T03:14:42;65.20;;;33.95;;
40162;SDS011;25881;47.462;19.304;2024-01-11T03:17:07;59.88;;;32.15;;
40162;SDS011;25881;47.462;19.304;2024-01-11T03:19:33;67.70;;;33.60;;
40162;SDS011;25881;47.462;19.304;2024-01-11T03:21:59;58.33;;;30.80;;
40162;SDS011;25881;47.462;19.304;2024-01-11T03:24:28;61.70;;;30.88;;
40162;SDS011;25881;47.462;19.304;2024-01-11T03:26:53;60.53;;;31.47;;
40162;SDS011;25881;47.462;19.304;2024-01-11T03:29:18;58.87;;;31.43;;
40162;SDS011;25881;47.462;19.304;2024-01-11T03:31:43;61.80;;;31.83;;
40162;SDS011;25881;47.462;19.304;2024-01-11T03:34:09;63.28;;;34.65;;
40162;SDS011;25881;47.462;19.304;2024-01-11T03:36:35;62.67;;;31.53;;
40162;SDS011;25881;47.462;19.304;2024-01-11T03:39:00;67.03;;;33.67;;
40162;SDS011;25881;47.462;19.304;2024-01-11T03:41:25;58.40;;;33.15;;
40162;SDS011;25881;47.462;19.304;2024-01-11T03:43:50;65.13;;;34.13;;
40162;SDS011;25881;47.462;19.304;2024-01-11T03:46:16;58.37;;;30.83;;
40162;SDS011;25881;47.462;19.304;2024-01-11T03:48:41;63.25;;;31.70;;
40162;SDS011;25881;47.462;19.304;2024-01-11T03:51:06;61.50;;;30.30;;
40162;SDS011;25881;47.462;19.304;2024-01-11T03:53:35;63.33;;;31.70;;
40162;SDS011;25881;47.462;19.304;2024-01-11T03:56:01;59.25;;;32.65;;
40162;SDS011;25881;47.462;19.304;2024-01-11T03:58:26;63.80;;;32.13;;
40162;SDS011;25881;47.462;19.304;2024-01-11T04:00:52;54.17;;;29.47;;
40162;SDS011;25881;47.462;19.304;2024-01-11T04:03:17;57.43;;;31.10;;
40162;SDS011;25881;47.462;19.304;2024-01-11T04:05:42;58.63;;;30.97;;
40162;SDS011;25881;47.462;19.304;2024-01-11T04:08:08;64.97;;;33.10;;
40162;SDS011;25881;47.462;19.304;2024-01-11T04:10:33;55.37;;;32.00;;
40162;SDS011;25881;47.462;19.304;2024-01-11T04:12:58;60.15;;;30.95;;
40162;SDS011;25881;47.462;19.304;2024-01-11T04:15:24;61.58;;;33.10;;
40162;SDS011;25881;47.462;19.304;2024-01-11T04:17:49;61.97;;;33.60;;
40162;SDS011;25881;47.462;19.304;2024-01-11T04:20:14;63.03;;;33.03;;
40162;SDS011;25881;47.462;19.304;2024-01-11T04:22:39;70.00;;;34.43;;
40162;SDS011;25881;47.462;19.304;2024-01-11T04:25:05;59.87;;;33.43;;
40162;SDS011;25881;47.462;19.304;2024-01-11T04:27:30;67.75;;;33.28;;
40162;SDS011;25881;47.462;19.304;2024-01-11T04:29:56;65.65;;;34.47;;
40162;SDS011;25881;47.462;19.304;2024-01-11T04:32:22;72.50;;;37.38;;
40162;SDS011;25881;47.462;19.304;2024-01-11T04:34:47;70.78;;;36.92;;
40162;SDS011;25881;47.462;19.304;2024-01-11T04:37:15;66.30;;;35.35;;
40162;SDS011;25881;47.462;19.304;2024-01-11T04:39:46;73.60;;;35.70;;
40162;SDS011;25881;47.462;19.304;2024-01-11T04:42:12;68.55;;;36.83;;
40162;SDS011;25881;47.462;19.304;2024-01-11T04:44:41;77.07;;;38.90;;
40162;SDS011;25881;47.462;19.304;2024-01-11T04:47:07;76.40;;;38.22;;
40162;SDS011;25881;47.462;19.304;2024-01-11T04:49:33;72.63;;;39.15;;
40162;SDS011;25881;47.462;19.304;2024-01-11T04:51:58;79.28;;;38.47;;
40162;SDS011;25881;47.462;19.304;2024-01-11T04:54:27;72.10;;;36.55;;
40162;SDS011;25881;47.462;19.304;2024-01-11T04:56:52;71.10;;;36.08;;
40162;SDS011;25881;47.462;19.304;2024-01-11T04:59:20;65.40;;;36.40;;
40162;SDS011;25881;47.462;19.304;2024-01-11T05:01:49;69.50;;;35.35;;
40162;SDS011;25881;47.462;19.304;2024-01-11T05:04:14;69.97;;;35.33;;
40162;SDS011;25881;47.462;19.304;2024-01-11T05:06:40;65.25;;;33.47;;
40162;SDS011;25881;47.462;19.304;2024-01-11T05:09:05;60.50;;;34.55;;
40162;SDS011;25881;47.462;19.304;2024-01-11T05:11:30;71.05;;;35.83;;
40162;SDS011;25881;47.462;19.304;2024-01-11T05:13:55;70.63;;;35.38;;
40162;SDS011;25881;47.462;19.304;2024-01-11T05:16:25;67.83;;;35.30;;
40162;SDS011;25881;47.462;19.304;2024-01-11T05:18:54;63.53;;;34.65;;
40162;SDS011;25881;47.462;19.304;2024-01-11T05:21:19;66.95;;;35.10;;
40162;SDS011;25881;47.462;19.304;2024-01-11T05:23:44;67.20;;;36.25;;
40162;SDS011;25881;47.462;19.304;2024-01-11T05:26:10;63.80;;;36.38;;
40162;SDS011;25881;47.462;19.304;2024-01-11T05:28:35;67.95;;;37.58;;
40162;SDS011;25881;47.462;19.304;2024-01-11T05:31:00;76.70;;;38.50;;
40162;SDS011;25881;47.462;19.304;2024-01-11T05:33:26;74.00;;;38.57;;
40162;SDS011;25881;47.462;19.304;2024-01-11T05:35:51;81.37;;;41.80;;
40162;SDS011;25881;47.462;19.304;2024-01-11T05:38:18;80.03;;;41.83;;
40162;SDS011;25881;47.462;19.304;2024-01-11T05:40:44;72.65;;;37.58;;
40162;SDS011;25881;47.462;19.304;2024-01-11T05:43:09;80.30;;;41.00;;
40162;SDS011;25881;47.462;19.304;2024-01-11T05:45:35;73.50;;;37.58;;
40162;SDS011;25881;47.462;19.304;2024-01-11T05:48:00;61.87;;;34.20;;
40162;SDS011;25881;47.462;19.304;2024-01-11T05:50:26;60.53;;;31.60;;
40162;SDS011;25881;47.462;19.304;2024-01-11T05:52:51;59.47;;;31.42;;
40162;SDS011;25881;47.462;19.304;2024-01-11T05:55:18;61.30;;;30.73;;
40162;SDS011;25881;47.462;19.304;2024-01-11T05:57:44;61.80;;;31.20;;
40162;SDS011;25881;47.462;19.304;2024-01-11T06:00:10;60.65;;;31.98;;
40162;SDS011;25881;47.462;19.304;2024-01-11T06:02:36;61.42;;;31.95;;
40162;SDS011;25881;47.462;19.304;2024-01-11T06:05:02;60.22;;;29.98;;
40162;SDS011;25881;47.462;19.304;2024-01-11T06:07:28;55.95;;;29.55;;
40162;SDS011;25881;47.462;19.304;2024-01-11T06:09:54;67.70;;;34.80;;
40162;SDS011;25881;47.462;19.304;2024-01-11T06:12:19;62.78;;;34.15;;
40162;SDS011;25881;47.462;19.304;2024-01-11T06:14:44;68.38;;;33.05;;
40162;SDS011;25881;47.462;19.304;2024-01-11T06:17:10;61.30;;;31.43;;
40162;SDS011;25881;47.462;19.304;2024-01-11T06:19:36;59.53;;;32.80;;
40162;SDS011;25881;47.462;19.304;2024-01-11T06:22:01;59.83;;;32.17;;
40162;SDS011;25881;47.462;19.304;2024-01-11T06:24:27;59.53;;;31.50;;
40162;SDS011;25881;47.462;19.304;2024-01-11T06:26:52;60.53;;;32.00;;
40162;SDS011;25881;47.462;19.304;2024-01-11T06:29:17;52.87;;;28.77;;
40162;SDS011;25881;47.462;19.304;2024-01-11T06:31:42;63.50;;;32.50;;
40162;SDS011;25881;47.462;19.304;2024-01-11T06:34:08;65.57;;;33.10;;
40162;SDS011;25881;47.462;19.304;2024-01-11T06:36:33;64.73;;;31.93;;
40162;SDS011;25881;47.462;19.304;2024-01-11T06:38:58;66.82;;;34.53;;
40162;SDS011;25881;47.462;19.304;2024-01-11T06:41:23;63.07;;;32.67;;
40162;SDS011;25881;47.462;19.304;2024-01-11T06:43:49;63.90;;;32.72;;
40162;SDS011;25881;47.462;19.304;2024-01-11T06:46:19;62.67;;;32.27;;
40162;SDS011;25881;47.462;19.304;2024-01-11T06:48:44;67.53;;;32.97;;
40162;SDS011;25881;47.462;19.304;2024-01-11T06:51:09;63.43;;;32.73;;
40162;SDS011;25881;47.462;19.304;2024-01-11T06:53:36;76.87;;;34.77;;
40162;SDS011;25881;47.462;19.304;2024-01-11T06:56:02;63.42;;;33.55;;
40162;SDS011;25881;47.462;19.304;2024-01-11T06:58:27;67.90;;;34.58;;
40162;SDS011;25881;47.462;19.304;2024-01-11T07:00:52;65.57;;;35.40;;
40162;SDS011;25881;47.462;19.304;2024-01-11T07:03:18;75.10;;;37.65;;
40162;SDS011;25881;47.462;19.304;2024-01-11T07:05:44;73.47;;;38.87;;
40162;SDS011;25881;47.462;19.304;2024-01-11T07:08:09;80.13;;;39.78;;
40162;SDS011;25881;47.462;19.304;2024-01-11T07:10:35;79.65;;;37.30;;
40162;SDS011;25881;47.462;19.304;2024-01-11T07:13:00;70.97;;;35.63;;
40162;SDS011;25881;47.462;19.304;2024-01-11T07:15:25;61.47;;;34.17;;
40162;SDS011;25881;47.462;19.304;2024-01-11T07:17:51;65.35;;;34.88;;
40162;SDS011;25881;47.462;19.304;2024-01-11T07:20:18;65.47;;;34.37;;
40162;SDS011;25881;47.462;19.304;2024-01-11T07:22:43;67.38;;;32.92;;
40162;SDS011;25881;47.462;19.304;2024-01-11T07:25:09;60.97;;;34.25;;
40162;SDS011;25881;47.462;19.304;2024-01-11T07:27:35;72.03;;;36.80;;
40162;SDS011;25881;47.462;19.304;2024-01-11T07:30:01;75.93;;;35.30;;
40162;SDS011;25881;47.462;19.304;2024-01-11T07:32:28;64.25;;;33.58;;
40162;SDS011;25881;47.462;19.304;2024-01-11T07:34:53;60.00;;;32.85;;
40162;SDS011;25881;47.462;19.304;2024-01-11T07:37:18;61.40;;;31.50;;
40162;SDS011;25881;47.462;19.304;2024-01-11T07:39:44;59.78;;;31.17;;
40162;SDS011;25881;47.462;19.304;2024-01-11T07:42:09;61.53;;;33.05;;
40162;SDS011;25881;47.462;19.304;2024-01-11T07:44:34;65.68;;;35.30;;
40162;SDS011;25881;47.462;19.304;2024-01-11T07:47:00;72.93;;;36.53;;
40162;SDS011;25881;47.462;19.304;2024-01-11T07:49:25;70.15;;;36.20;;
40162;SDS011;25881;47.462;19.304;2024-01-11T07:51:51;64.15;;;33.90;;
40162;SDS011;25881;47.462;19.304;2024-01-11T07:54:16;63.57;;;33.13;;
40162;SDS011;25881;47.462;19.304;2024-01-11T07:56:42;66.63;;;33.20;;
40162;SDS011;25881;47.462;19.304;2024-01-11T07:59:08;67.45;;;34.58;;
40162;SDS011;25881;47.462;19.304;2024-01-11T08:01:37;66.70;;;33.13;;
40162;SDS011;25881;47.462;19.304;2024-01-11T08:04:03;62.90;;;32.80;;
40162;SDS011;25881;47.462;19.304;2024-01-11T08:06:28;78.40;;;39.47;;
40162;SDS011;25881;47.462;19.304;2024-01-11T08:08:53;100.70;;;49.37;;
40162;SDS011;25881;47.462;19.304;2024-01-11T08:11:18;109.03;;;53.78;;
40162;SDS011;25881;47.462;19.304;2024-01-11T08:13:44;114.85;;;60.05;;
40162;SDS011;25881;47.462;19.304;2024-01-11T08:16:14;107.53;;;56.50;;
40162;SDS011;25881;47.462;19.304;2024-01-11T08:18:40;112.60;;;59.30;;
40162;SDS011;25881;47.462;19.304;2024-01-11T08:21:05;107.78;;;54.13;;
40162;SDS011;25881;47.462;19.304;2024-01-11T08:23:34;111.63;;;56.67;;
40162;SDS011;25881;47.462;19.304;2024-01-11T08:25:59;108.78;;;52.90;;
40162;SDS011;25881;47.462;19.304;2024-01-11T08:28:25;97.85;;;53.20;;
40162;SDS011;25881;47.462;19.304;2024-01-11T08:30:50;106.43;;;54.83;;
40162;SDS011;25881;47.462;19.304;2024-01-11T08:33:15;110.20;;;56.63;;
40162;SDS011;25881;47.462;19.304;2024-01-11T08:35:41;97.30;;;53.90;;
40162;SDS011;25881;47.462;19.304;2024-01-11T08:38:06;98.50;;;52.22;;
40162;SDS011;25881;47.462;19.304;2024-01-11T08:40:33;95.18;;;51.67;;
40162;SDS011;25881;47.462;19.304;2024-01-11T08:42:58;102.75;;;55.28;;
40162;SDS011;25881;47.462;19.304;2024-01-11T08:45:24;86.20;;;42.25;;
40162;SDS011;25881;47.462;19.304;2024-01-11T08:47:49;87.28;;;45.42;;
40162;SDS011;25881;47.462;19.304;2024-01-11T08:50:16;93.72;;;49.63;;
40162;SDS011;25881;47.462;19.304;2024-01-11T08:52:42;112.03;;;59.97;;
40162;SDS011;25881;47.462;19.304;2024-01-11T08:55:08;115.60;;;59.17;;
40162;SDS011;25881;47.462;19.304;2024-01-11T08:57:33;108.50;;;59.30;;
40162;SDS011;25881;47.462;19.304;2024-01-11T09:00:00;129.73;;;67.28;;
40162;SDS011;25881;47.462;19.304;2024-01-11T09:02:26;120.43;;;62.78;;
40162;SDS011;25881;47.462;19.304;2024-01-11T09:04:51;126.00;;;67.00;;
40162;SDS011;25881;47.462;19.304;2024-01-11T09:07:16;135.73;;;66.45;;
40162;SDS011;25881;47.462;19.304;2024-01-11T09:09:41;130.32;;;67.40;;
40162;SDS011;25881;47.462;19.304;2024-01-11T09:12:07;128.80;;;67.57;;
40162;SDS011;25881;47.462;19.304;2024-01-11T09:14:32;122.13;;;65.45;;
40162;SDS011;25881;47.462;19.304;2024-01-11T09:16:57;128.90;;;68.47;;
40162;SDS011;25881;47.462;19.304;2024-01-11T09:19:22;124.57;;;67.17;;
40162;SDS011;25881;47.462;19.304;2024-01-11T09:21:48;132.82;;;69.50;;
40162;SDS011;25881;47.462;19.304;2024-01-11T09:24:13;137.20;;;71.57;;
40162;SDS011;25881;47.462;19.304;2024-01-11T09:26:38;143.33;;;72.20;;
40162;SDS011;25881;47.462;19.304;2024-01-11T09:29:03;154.50;;;79.00;;
40162;SDS011;25881;47.462;19.304;2024-01-11T09:31:29;140.60;;;76.00;;
40162;SDS011;25881;47.462;19.304;2024-01-11T09:33:54;153.65;;;79.15;;
40162;SDS011;25881;47.462;19.304;2024-01-11T09:36:22;150.40;;;80.90;;
40162;SDS011;25881;47.462;19.304;2024-01-11T09:38:48;158.02;;;84.05;;
40162;SDS011;25881;47.462;19.304;2024-01-11T09:41:14;155.25;;;83.50;;
40162;SDS011;25881;47.462;19.304;2024-01-11T09:43:43;139.50;;;71.10;;
40162;SDS011;25881;47.462;19.304;2024-01-11T09:46:09;127.13;;;66.03;;
40162;SDS011;25881;47.462;19.304;2024-01-11T09:48:35;128.88;;;65.78;;
40162;SDS011;25881;47.462;19.304;2024-01-11T09:51:10;118.65;;;60.22;;
40162;SDS011;25881;47.462;19.304;2024-01-11T09:53:36;111.35;;;57.50;;
40162;SDS011;25881;47.462;19.304;2024-01-11T09:56:05;113.72;;;60.05;;
40162;SDS011;25881;47.462;19.304;2024-01-11T09:58:32;108.30;;;55.97;;
40162;SDS011;25881;47.462;19.304;2024-01-11T10:00:58;104.15;;;57.30;;
40162;SDS011;25881;47.462;19.304;2024-01-11T10:03:24;98.20;;;51.88;;
40162;SDS011;25881;47.462;19.304;2024-01-11T10:05:51;86.50;;;45.90;;
40162;SDS011;25881;47.462;19.304;2024-01-11T10:08:21;84.13;;;46.45;;
40162;SDS011;25881;47.462;19.304;2024-01-11T10:10:47;78.78;;;40.70;;
40162;SDS011;25881;47.462;19.304;2024-01-11T10:13:13;73.43;;;41.88;;
40162;SDS011;25881;47.462;19.304;2024-01-11T10:15:38;70.93;;;37.75;;
40162;SDS011;25881;47.462;19.304;2024-01-11T10:18:04;69.28;;;38.08;;
40162;SDS011;25881;47.462;19.304;2024-01-11T10:20:29;79.93;;;37.97;;
40162;SDS011;25881;47.462;19.304;2024-01-11T10:22:57;105.55;;;53.42;;
40162;SDS011;25881;47.462;19.304;2024-01-11T10:25:22;66.97;;;38.33;;
40162;SDS011;25881;47.462;19.304;2024-01-11T10:27:48;73.28;;;38.47;;
40162;SDS011;25881;47.462;19.304;2024-01-11T10:30:14;65.40;;;33.03;;
40162;SDS011;25881;47.462;19.304;2024-01-11T10:32:46;71.97;;;38.22;;
40162;SDS011;25881;47.462;19.304;2024-01-11T10:35:12;68.25;;;35.70;;
40162;SDS011;25881;47.462;19.304;2024-01-11T10:37:37;53.65;;;30.67;;
40162;SDS011;25881;47.462;19.304;2024-01-11T10:42:34;91.32;;;45.25;;
40162;SDS011;25881;47.462;19.304;2024-01-11T10:45:02;48.63;;;26.15;;
40162;SDS011;25881;47.462;19.304;2024-01-11T10:47:30;44.53;;;23.88;;
40162;SDS011;25881;47.462;19.304;2024-01-11T10:49:55;48.08;;;24.65;;
40162;SDS011;25881;47.462;19.304;2024-01-11T10:52:22;48.58;;;25.50;;
40162;SDS011;25881;47.462;19.304;2024-01-11T10:54:50;44.13;;;23.90;;
40162;SDS011;25881;47.462;19.304;2024-01-11T10:57:16;54.60;;;27.52;;
40162;SDS011;25881;47.462;19.304;2024-01-11T10:59:41;57.67;;;26.48;;
40162;SDS011;25881;47.462;19.304;2024-01-11T11:02:07;45.88;;;24.55;;
40162;SDS011;25881;47.462;19.304;2024-01-11T11:04:37;45.05;;;24.40;;
40162;SDS011;25881;47.462;19.304;2024-01-11T11:07:04;42.22;;;20.98;;
40162;SDS011;25881;47.462;19.304;2024-01-11T11:09:32;36.42;;;20.05;;
40162;SDS011;25881;47.462;19.304;2024-01-11T11:11:58;38.42;;;19.55;;
40162;SDS011;25881;47.462;19.304;2024-01-11T11:14:24;38.75;;;20.00;;
40162;SDS011;25881;47.462;19.304;2024-01-11T11:16:49;34.33;;;18.75;;
40162;SDS011;25881;47.462;19.304;2024-01-11T11:19:15;38.00;;;18.38;;
40162;SDS011;25881;47.462;19.304;2024-01-11T11:21:45;36.25;;;17.10;;
40162;SDS011;25881;47.462;19.304;2024-01-11T11:24:13;36.10;;;17.63;;
40162;SDS011;25881;47.462;19.304;2024-01-11T11:26:38;25.65;;;12.70;;
40162;SDS011;25881;47.462;19.304;2024-01-11T11:29:04;22.97;;;14.03;;
40162;SDS011;25881;47.462;19.304;2024-01-11T11:31:36;26.13;;;14.15;;
40162;SDS011;25881;47.462;19.304;2024-01-11T11:34:03;28.60;;;15.60;;
40162;SDS011;25881;47.462;19.304;2024-01-11T11:36:29;28.52;;;15.73;;
40162;SDS011;25881;47.462;19.304;2024-01-11T11:38:54;31.20;;;16.25;;
40162;SDS011;25881;47.462;19.304;2024-01-11T11:41:25;29.70;;;14.95;;
40162;SDS011;25881;47.462;19.304;2024-01-11T11:43:51;30.58;;;16.77;;
40162;SDS011;25881;47.462;19.304;2024-01-11T11:46:16;48.75;;;25.08;;
40162;SDS011;25881;47.462;19.304;2024-01-11T11:48:48;34.20;;;18.55;;
40162;SDS011;25881;47.462;19.304;2024-01-11T11:51:16;26.33;;;13.73;;
40162;SDS011;25881;47.462;19.304;2024-01-11T11:53:43;36.25;;;21.02;;
40162;SDS011;25881;47.462;19.304;2024-01-11T11:58:38;29.95;;;15.70;;
40162;SDS011;25881;47.462;19.304;2024-01-11T12:01:04;32.70;;;16.40;;
40162;SDS011;25881;47.462;19.304;2024-01-11T12:03:30;31.63;;;17.65;;
40162;SDS011;25881;47.462;19.304;2024-01-11T12:05:56;56.60;;;39.45;;
40162;SDS011;25881;47.462;19.304;2024-01-11T12:08:22;31.45;;;17.45;;
40162;SDS011;25881;47.462;19.304;2024-01-11T12:10:47;33.15;;;17.98;;
40162;SDS011;25881;47.462;19.304;2024-01-11T12:13:14;34.13;;;18.23;;
40162;SDS011;25881;47.462;19.304;2024-01-11T12:15:39;54.88;;;28.42;;
40162;SDS011;25881;47.462;19.304;2024-01-11T12:18:05;45.88;;;24.30;;
40162;SDS011;25881;47.462;19.304;2024-01-11T12:20:32;35.65;;;19.05;;
40162;SDS011;25881;47.462;19.304;2024-01-11T12:22:58;23.83;;;13.48;;
40162;SDS011;25881;47.462;19.304;2024-01-11T12:25:23;23.67;;;12.75;;
40162;SDS011;25881;47.462;19.304;2024-01-11T12:27:49;25.60;;;12.73;;
40162;SDS011;25881;47.462;19.304;2024-01-11T12:30:16;27.08;;;13.40;;
40162;SDS011;25881;47.462;19.304;2024-01-11T12:32:42;26.40;;;14.43;;
40162;SDS011;25881;47.462;19.304;2024-01-11T12:35:07;183.65;;;62.85;;
40162;SDS011;25881;47.462;19.304;2024-01-11T12:37:33;37.53;;;18.27;;
40162;SDS011;25881;47.462;19.304;2024-01-11T12:39:58;34.10;;;15.93;;
40162;SDS011;25881;47.462;19.304;2024-01-11T12:42:25;28.38;;;15.52;;
40162;SDS011;25881;47.462;19.304;2024-01-11T12:44:50;26.15;;;14.77;;
40162;SDS011;25881;47.462;19.304;2024-01-11T12:47:16;28.67;;;15.77;;
40162;SDS011;25881;47.462;19.304;2024-01-11T12:49:43;31.27;;;16.75;;
40162;SDS011;25881;47.462;19.304;2024-01-11T12:52:20;33.10;;;17.77;;
40162;SDS011;25881;47.462;19.304;2024-01-11T12:54:45;33.40;;;17.40;;
40162;SDS011;25881;47.462;19.304;2024-01-11T12:57:17;33.25;;;17.63;;
40162;SDS011;25881;47.462;19.304;2024-01-11T12:59:44;33.90;;;17.67;;
40162;SDS011;25881;47.462;19.304;2024-01-11T13:02:10;35.63;;;17.27;;
40162;SDS011;25881;47.462;19.304;2024-01-11T13:04:38;36.13;;;17.50;;
40162;SDS011;25881;47.462;19.304;2024-01-11T13:07:04;37.37;;;18.40;;
40162;SDS011;25881;47.462;19.304;2024-01-11T13:09:29;37.33;;;18.50;;
40162;SDS011;25881;47.462;19.304;2024-01-11T13:11:54;32.53;;;16.83;;
40162;SDS011;25881;47.462;19.304;2024-01-11T13:14:19;37.97;;;18.25;;
40162;SDS011;25881;47.462;19.304;2024-01-11T13:16:45;31.13;;;17.13;;
40162;SDS011;25881;47.462;19.304;2024-01-11T13:19:11;29.02;;;16.27;;
40162;SDS011;25881;47.462;19.304;2024-01-11T13:21:37;33.65;;;16.45;;
40162;SDS011;25881;47.462;19.304;2024-01-11T13:24:03;51.22;;;24.30;;
40162;SDS011;25881;47.462;19.304;2024-01-11T13:26:28;32.38;;;16.17;;
40162;SDS011;25881;47.462;19.304;2024-01-11T13:28:53;38.23;;;17.87;;
40162;SDS011;25881;47.462;19.304;2024-01-11T13:31:19;45.97;;;22.75;;
40162;SDS011;25881;47.462;19.304;2024-01-11T13:33:45;32.10;;;17.73;;
40162;SDS011;25881;47.462;19.304;2024-01-11T13:36:11;25.60;;;14.10;;
40162;SDS011;25881;47.462;19.304;2024-01-11T13:38:37;27.88;;;14.73;;
40162;SDS011;25881;47.462;19.304;2024-01-11T13:41:02;30.10;;;15.73;;
40162;SDS011;25881;47.462;19.304;2024-01-11T13:43:27;32.88;;;16.80;;
40162;SDS011;25881;47.462;19.304;2024-01-11T13:45:53;27.58;;;15.18;;
40162;SDS011;25881;47.462;19.304;2024-01-11T13:48:19;28.05;;;13.15;;
40162;SDS011;25881;47.462;19.304;2024-01-11T13:50:44;33.63;;;14.20;;
40162;SDS011;25881;47.462;19.304;2024-01-11T13:53:10;30.25;;;14.68;;
40162;SDS011;25881;47.462;19.304;2024-01-11T13:55:36;32.50;;;15.15;;
40162;SDS011;25881;47.462;19.304;2024-01-11T13:58:04;33.10;;;16.70;;
40162;SDS011;25881;47.462;19.304;2024-01-11T14:00:30;27.20;;;13.98;;
40162;SDS011;25881;47.462;19.304;2024-01-11T14:02:55;36.37;;;17.47;;